sensor_id;sensor_type;location;lat;lon;timestamp;pressure;altitude;pressure_sealevel;temperature;humidity
57894;BME280;43710;47.460;19.034;2023-05-15T06:00:53;99818.09;;;15.24;100.00
57894;BME280;43710;47.460;19.034;2023-05-15T06:03:56;99818.09;;;15.24;100.00
57894;BME280;43710;47.460;19.034;2023-05-15T06:06:59;99809.38;;;14.71;100.00
57894;BME280;43710;47.460;19.034;2023-05-15T06:10:02;99797.75;;;14.79;100.00
57894;BME280;43710;47.460;19.034;2023-05-15T06:13:04;99807.59;;;14.84;100.00
57894;BME280;43710;47.460;19.034;2023-05-15T06:16:07;99814.22;;;14.95;100.00
57894;BME280;43710;47.460;19.034;2023-05-15T06:19:10;99822.31;;;15.04;100.00
57894;BME280;43710;47.460;19.034;2023-05-15T06:22:13;99824.03;;;15.09;100.00
57894;BME280;43710;47.460;19.034;2023-05-15T06:25:15;99828.97;;;15.07;100.00
57894;BME280;43710;47.460;19.034;2023-05-15T06:28:17;99828.69;;;15.29;100.00
57894;BME280;43710;47.460;19.034;2023-05-15T06:31:20;99842.44;;;15.45;100.00
57894;BME280;43710;47.460;19.034;2023-05-15T06:34:22;99832.78;;;15.35;100.00
57894;BME280;43710;47.460;19.034;2023-05-15T06:37:24;99831.78;;;15.48;100.00
57894;BME280;43710;47.460;19.034;2023-05-15T06:40:27;99823.22;;;15.46;100.00
57894;BME280;43710;47.460;19.034;2023-05-15T06:43:29;99814.53;;;15.62;100.00
57894;BME280;43710;47.460;19.034;2023-05-15T06:46:32;99804.13;;;15.51;100.00
57894;BME280;43710;47.460;19.034;2023-05-15T06:49:34;99798.66;;;15.60;100.00
57894;BME280;43710;47.460;19.034;2023-05-15T06:52:36;99788.94;;;15.89;100.00
57894;BME280;43710;47.460;19.034;2023-05-15T06:55:39;99790.13;;;15.79;100.00
57894;BME280;43710;47.460;19.034;2023-05-15T06:58:41;99791.91;;;15.75;100.00
57894;BME280;43710;47.460;19.034;2023-05-15T07:01:43;99790.53;;;15.90;100.00
57894;BME280;43710;47.460;19.034;2023-05-15T07:04:47;99792.12;;;15.91;100.00
57894;BME280;43710;47.460;19.034;2023-05-15T07:07:49;99797.28;;;15.84;100.00
57894;BME280;43710;47.460;19.034;2023-05-15T07:10:52;99810.34;;;16.03;100.00
57894;BME280;43710;47.460;19.034;2023-05-15T07:13:56;99802.72;;;16.17;100.00
57894;BME280;43710;47.460;19.034;2023-05-15T07:16:58;99807.19;;;16.34;100.00
57894;BME280;43710;47.460;19.034;2023-05-15T07:20:00;99808.59;;;16.52;100.00
57894;BME280;43710;47.460;19.034;2023-05-15T07:23:03;99816.72;;;16.52;100.00
57894;BME280;43710;47.460;19.034;2023-05-15T07:26:06;99826.25;;;16.37;100.00
57894;BME280;43710;47.460;19.034;2023-05-15T07:29:13;99829.91;;;16.54;100.00
57894;BME280;43710;47.460;19.034;2023-05-15T07:32:16;99843.50;;;16.33;100.00
57894;BME280;43710;47.460;19.034;2023-05-15T07:35:18;99846.72;;;16.26;100.00
57894;BME280;43710;47.460;19.034;2023-05-15T07:38:20;99833.78;;;16.11;100.00
57894;BME280;43710;47.460;19.034;2023-05-15T07:41:23;99822.50;;;16.09;100.00
57894;BME280;43710;47.460;19.034;2023-05-15T07:44:25;99812.56;;;16.01;100.00
57894;BME280;43710;47.460;19.034;2023-05-15T07:47:27;99805.91;;;15.98;100.00
57894;BME280;43710;47.460;19.034;2023-05-15T07:50:30;99818.44;;;16.03;100.00
57894;BME280;43710;47.460;19.034;2023-05-15T07:53:33;99805.59;;;16.00;100.00
57894;BME280;43710;47.460;19.034;2023-05-15T07:56:36;99801.75;;;16.01;100.00
57894;BME280;43710;47.460;19.034;2023-05-15T07:59:38;99814.25;;;16.05;100.00
57894;BME280;43710;47.460;19.034;2023-05-15T08:02:41;99816.91;;;16.14;100.00
57894;BME280;43710;47.460;19.034;2023-05-15T08:05:47;99837.41;;;16.36;100.00
57894;BME280;43710;47.460;19.034;2023-05-15T08:08:49;99845.59;;;16.27;100.00
57894;BME280;43710;47.460;19.034;2023-05-15T08:11:54;99837.53;;;16.18;100.00
57894;BME280;43710;47.460;19.034;2023-05-15T08:14:57;99840.97;;;16.28;100.00
57894;BME280;43710;47.460;19.034;2023-05-15T08:17:59;99838.44;;;16.43;100.00
57894;BME280;43710;47.460;19.034;2023-05-15T08:21:01;99842.28;;;16.42;100.00
57894;BME280;43710;47.460;19.034;2023-05-15T08:24:06;99834.25;;;16.34;100.00
57894;BME280;43710;47.460;19.034;2023-05-15T08:27:08;99840.31;;;16.31;100.00
57894;BME280;43710;47.460;19.034;2023-05-15T08:30:11;99842.53;;;16.29;100.00
57894;BME280;43710;47.460;19.034;2023-05-15T08:33:13;99844.94;;;16.30;100.00
57894;BME280;43710;47.460;19.034;2023-05-15T08:36:16;99843.13;;;16.34;100.00
57894;BME280;43710;47.460;19.034;2023-05-15T08:39:21;99840.69;;;16.41;100.00
57894;BME280;43710;47.460;19.034;2023-05-15T08:42:27;99845.97;;;16.59;100.00
57894;BME280;43710;47.460;19.034;2023-05-15T08:45:35;99832.87;;;16.61;100.00
57894;BME280;43710;47.460;19.034;2023-05-15T08:48:39;99826.72;;;16.73;100.00
57894;BME280;43710;47.460;19.034;2023-05-15T08:51:43;99825.53;;;16.82;100.00
57894;BME280;43710;47.460;19.034;2023-05-15T08:54:47;99823.38;;;16.88;100.00
57894;BME280;43710;47.460;19.034;2023-05-15T08:57:49;99818.06;;;16.79;97.29
57894;BME280;43710;47.460;19.034;2023-05-15T09:00:52;99816.47;;;16.78;100.00
57894;BME280;43710;47.460;19.034;2023-05-15T09:03:55;99818.13;;;16.71;99.17
57894;BME280;43710;47.460;19.034;2023-05-15T09:07:02;99816.81;;;16.77;96.09
57894;BME280;43710;47.460;19.034;2023-05-15T09:10:05;99830.00;;;16.78;96.09
57894;BME280;43710;47.460;19.034;2023-05-15T09:13:08;99842.00;;;16.89;98.49
57894;BME280;43710;47.460;19.034;2023-05-15T09:16:10;99846.88;;;16.96;100.00
57894;BME280;43710;47.460;19.034;2023-05-15T09:19:14;99842.91;;;16.94;97.71
57894;BME280;43710;47.460;19.034;2023-05-15T09:22:18;99852.84;;;17.02;99.80
57894;BME280;43710;47.460;19.034;2023-05-15T09:25:42;99858.59;;;17.00;100.00
57894;BME280;43710;47.460;19.034;2023-05-15T09:28:45;99859.31;;;17.09;100.00
57894;BME280;43710;47.460;19.034;2023-05-15T09:31:48;99861.81;;;17.27;100.00
57894;BME280;43710;47.460;19.034;2023-05-15T09:34:50;99871.41;;;17.36;97.75
57894;BME280;43710;47.460;19.034;2023-05-15T09:37:57;99877.25;;;17.26;94.73
57894;BME280;43710;47.460;19.034;2023-05-15T09:41:02;99876.47;;;17.13;94.20
57894;BME280;43710;47.460;19.034;2023-05-15T09:44:16;99875.12;;;17.20;97.73
57894;BME280;43710;47.460;19.034;2023-05-15T09:47:22;99874.09;;;17.24;98.36
57894;BME280;43710;47.460;19.034;2023-05-15T09:50:37;99883.25;;;17.20;93.15
57894;BME280;43710;47.460;19.034;2023-05-15T09:53:40;99872.97;;;17.25;93.19
57894;BME280;43710;47.460;19.034;2023-05-15T09:56:46;99871.28;;;17.33;93.46
57894;BME280;43710;47.460;19.034;2023-05-15T09:59:48;99870.84;;;17.43;95.82
57894;BME280;43710;47.460;19.034;2023-05-15T10:02:51;99875.59;;;17.58;96.93
57894;BME280;43710;47.460;19.034;2023-05-15T10:06:00;99876.12;;;17.64;94.34
57894;BME280;43710;47.460;19.034;2023-05-15T10:09:06;99878.63;;;17.57;91.59
57894;BME280;43710;47.460;19.034;2023-05-15T10:12:09;99876.38;;;17.47;87.91
57894;BME280;43710;47.460;19.034;2023-05-15T10:15:12;99871.06;;;17.50;91.29
57894;BME280;43710;47.460;19.034;2023-05-15T10:18:17;99876.94;;;17.65;97.23
57894;BME280;43710;47.460;19.034;2023-05-15T10:21:23;99881.44;;;17.60;87.99
57894;BME280;43710;47.460;19.034;2023-05-15T10:24:28;99876.94;;;17.52;87.86
57894;BME280;43710;47.460;19.034;2023-05-15T10:27:33;99874.91;;;17.49;91.90
57894;BME280;43710;47.460;19.034;2023-05-15T10:30:37;99881.00;;;17.46;87.26
57894;BME280;43710;47.460;19.034;2023-05-15T10:33:40;99879.41;;;17.57;89.59
57894;BME280;43710;47.460;19.034;2023-05-15T10:36:43;99874.34;;;17.68;88.42
57894;BME280;43710;47.460;19.034;2023-05-15T10:39:46;99879.22;;;17.75;85.01
57894;BME280;43710;47.460;19.034;2023-05-15T10:42:49;99876.28;;;17.80;84.46
57894;BME280;43710;47.460;19.034;2023-05-15T10:45:51;99882.59;;;17.96;88.09
57894;BME280;43710;47.460;19.034;2023-05-15T10:48:54;99889.78;;;18.04;90.75
57894;BME280;43710;47.460;19.034;2023-05-15T10:51:59;99886.84;;;18.10;86.27
57894;BME280;43710;47.460;19.034;2023-05-15T10:55:05;99886.97;;;18.01;83.97
57894;BME280;43710;47.460;19.034;2023-05-15T10:58:08;99879.75;;;18.05;86.61
57894;BME280;43710;47.460;19.034;2023-05-15T11:01:27;99872.94;;;18.11;90.32
57894;BME280;43710;47.460;19.034;2023-05-15T11:04:31;99882.09;;;18.19;85.63
57894;BME280;43710;47.460;19.034;2023-05-15T11:07:34;99877.19;;;18.24;85.97
57894;BME280;43710;47.460;19.034;2023-05-15T11:10:36;99885.34;;;18.24;81.18
